QTR1014 OTHH-OMDB
Flight info
| Callsign | QTR1014 |
|---|---|
| Flight time | N/A |
| Altitude | 21000 |
| Route | ALSEM L305 ITBUL M677 VUTEB |
| Aircraft | B77W/H-SDE1E2E3FGHIJ2J3J4J5M1RWXY/LB1D1 |
Departure
| Time | N/A |
|---|---|
| Airport | Hamad International Airport (OTHH) |
Arrival
| Time | 2026-05-07 22:08 |
|---|---|
| Airport | Dubai International Airport (OMDB) |
| Time | Latitude | Longitude | Altitude | Speed | Heading |
|---|---|---|---|---|---|
| 2026-05-07 21:34 | 25.59202 | 53.32731 | 20805 ft | 414 kts | 76° |
| 2026-05-07 21:34 | 25.59827 | 53.35315 | 20805 ft | 414 kts | 76° |
| 2026-05-07 21:34 | 25.60572 | 53.38399 | 20803 ft | 413 kts | 76° |
| 2026-05-07 21:34 | 25.61308 | 53.41442 | 20787 ft | 404 kts | 76° |
| 2026-05-07 21:35 | 25.62029 | 53.44420 | 20787 ft | 398 kts | 76° |
| 2026-05-07 21:35 | 25.62735 | 53.47344 | 20794 ft | 399 kts | 76° |
| 2026-05-07 21:35 | 25.63451 | 53.50311 | 20799 ft | 399 kts | 76° |
| 2026-05-07 21:35 | 25.64165 | 53.53279 | 20799 ft | 399 kts | 76° |
| 2026-05-07 21:36 | 25.64880 | 53.56248 | 20801 ft | 399 kts | 77° |
| 2026-05-07 21:36 | 25.65595 | 53.59218 | 20799 ft | 399 kts | 77° |
| 2026-05-07 21:36 | 25.66309 | 53.62188 | 20797 ft | 399 kts | 77° |
| 2026-05-07 21:36 | 25.67023 | 53.65165 | 20797 ft | 399 kts | 77° |
| 2026-05-07 21:37 | 25.67725 | 53.68093 | 20796 ft | 399 kts | 77° |
| 2026-05-07 21:37 | 25.68437 | 53.71063 | 20795 ft | 399 kts | 77° |
| 2026-05-07 21:37 | 25.69149 | 53.74032 | 20794 ft | 399 kts | 77° |
| 2026-05-07 21:37 | 25.69863 | 53.77000 | 20785 ft | 399 kts | 76° |
| 2026-05-07 21:38 | 25.70577 | 53.79963 | 20791 ft | 399 kts | 77° |
| 2026-05-07 21:38 | 25.71295 | 53.82937 | 20792 ft | 398 kts | 77° |
| 2026-05-07 21:38 | 25.72008 | 53.85903 | 20794 ft | 399 kts | 77° |
| 2026-05-07 21:38 | 25.72721 | 53.88876 | 20791 ft | 399 kts | 77° |
| 2026-05-07 21:39 | 25.73434 | 53.91849 | 20791 ft | 399 kts | 77° |
| 2026-05-07 21:39 | 25.74136 | 53.94777 | 20787 ft | 399 kts | 77° |
| 2026-05-07 21:39 | 25.74848 | 53.97748 | 20787 ft | 399 kts | 77° |
| 2026-05-07 21:39 | 25.75566 | 54.00719 | 20786 ft | 399 kts | 76° |
| 2026-05-07 21:40 | 25.76430 | 54.03650 | 20784 ft | 400 kts | 72° |
| 2026-05-07 21:40 | 25.77364 | 54.06556 | 20785 ft | 400 kts | 71° |
| 2026-05-07 21:40 | 25.78305 | 54.09459 | 20788 ft | 400 kts | 72° |
| 2026-05-07 21:40 | 25.79238 | 54.12372 | 20784 ft | 401 kts | 72° |
| 2026-05-07 21:41 | 25.80163 | 54.15293 | 20788 ft | 401 kts | 72° |
| 2026-05-07 21:41 | 25.81018 | 54.18291 | 20793 ft | 417 kts | 80° |
| 2026-05-07 21:41 | 25.81255 | 54.21493 | 20787 ft | 424 kts | 96° |
| 2026-05-07 21:41 | 25.80739 | 54.24657 | 20513 ft | 413 kts | 108° |
| 2026-05-07 21:42 | 25.79830 | 54.27652 | 20033 ft | 406 kts | 112° |
| 2026-05-07 21:42 | 25.78873 | 54.30587 | 19579 ft | 403 kts | 111° |
| 2026-05-07 21:42 | 25.77962 | 54.33513 | 19099 ft | 400 kts | 111° |
| 2026-05-07 21:42 | 25.77067 | 54.36419 | 18628 ft | 397 kts | 111° |
| 2026-05-07 21:43 | 25.76178 | 54.39309 | 18144 ft | 394 kts | 111° |
| 2026-05-07 21:43 | 25.75304 | 54.42143 | 17616 ft | 392 kts | 110° |
| 2026-05-07 21:43 | 25.74425 | 54.44988 | 17124 ft | 388 kts | 110° |
| 2026-05-07 21:43 | 25.73554 | 54.47805 | 16644 ft | 384 kts | 110° |
| 2026-05-07 21:44 | 25.72689 | 54.50593 | 16184 ft | 381 kts | 110° |
| 2026-05-07 21:44 | 25.71832 | 54.53356 | 15722 ft | 377 kts | 110° |
| 2026-05-07 21:44 | 25.70982 | 54.56091 | 15269 ft | 373 kts | 110° |
| 2026-05-07 21:44 | 25.70140 | 54.58801 | 14835 ft | 370 kts | 110° |
| 2026-05-07 21:45 | 25.69300 | 54.61488 | 14387 ft | 368 kts | 110° |
| 2026-05-07 21:45 | 25.68449 | 54.64151 | 13939 ft | 365 kts | 110° |
| 2026-05-07 21:45 | 25.67610 | 54.66757 | 13494 ft | 363 kts | 110° |
| 2026-05-07 21:45 | 25.66766 | 54.69382 | 13021 ft | 360 kts | 110° |
| 2026-05-07 21:46 | 25.65930 | 54.71984 | 12617 ft | 356 kts | 110° |
| 2026-05-07 21:46 | 25.65115 | 54.74521 | 12487 ft | 344 kts | 110° |
| 2026-05-07 21:46 | 25.64326 | 54.76978 | 12320 ft | 333 kts | 109° |
| 2026-05-07 21:46 | 25.63561 | 54.79363 | 12176 ft | 323 kts | 109° |
| 2026-05-07 21:47 | 25.62819 | 54.81675 | 12036 ft | 314 kts | 109° |
| 2026-05-07 21:47 | 25.62098 | 54.83917 | 11912 ft | 304 kts | 109° |
| 2026-05-07 21:47 | 25.61407 | 54.86065 | 11784 ft | 295 kts | 110° |
| 2026-05-07 21:47 | 25.60665 | 54.88146 | 11663 ft | 286 kts | 113° |
| 2026-05-07 21:48 | 25.59876 | 54.90131 | 11545 ft | 278 kts | 114° |
| 2026-05-07 21:48 | 25.59095 | 54.92072 | 11444 ft | 275 kts | 114° |
| 2026-05-07 21:48 | 25.58320 | 54.94011 | 11335 ft | 276 kts | 114° |
| 2026-05-07 21:48 | 25.57544 | 54.95962 | 11239 ft | 277 kts | 114° |
| 2026-05-07 21:49 | 25.56776 | 54.97905 | 11234 ft | 274 kts | 114° |
| 2026-05-07 21:49 | 25.56013 | 54.99839 | 11039 ft | 275 kts | 114° |
| 2026-05-07 21:49 | 25.55243 | 55.01793 | 10651 ft | 279 kts | 114° |
| 2026-05-07 21:49 | 25.54445 | 55.03780 | 10197 ft | 285 kts | 116° |
| 2026-05-07 21:50 | 25.53505 | 55.05695 | 9763 ft | 289 kts | 120° |
| 2026-05-07 21:50 | 25.52478 | 55.07629 | 9341 ft | 292 kts | 121° |
| 2026-05-07 21:50 | 25.51453 | 55.09551 | 9096 ft | 287 kts | 121° |
| 2026-05-07 21:50 | 25.50450 | 55.11448 | 8867 ft | 284 kts | 121° |
| 2026-05-07 21:51 | 25.49462 | 55.13334 | 8571 ft | 282 kts | 120° |
| 2026-05-07 21:51 | 25.48483 | 55.15216 | 8238 ft | 282 kts | 121° |
| 2026-05-07 21:51 | 25.47509 | 55.17085 | 8059 ft | 276 kts | 121° |
| 2026-05-07 21:51 | 25.46560 | 55.18913 | 8001 ft | 275 kts | 121° |
| 2026-05-07 21:52 | 25.45513 | 55.20707 | 7995 ft | 282 kts | 130° |
| 2026-05-07 21:52 | 25.44227 | 55.22323 | 8001 ft | 286 kts | 134° |
| 2026-05-07 21:52 | 25.42862 | 55.23920 | 7995 ft | 285 kts | 134° |
| 2026-05-07 21:52 | 25.41509 | 55.25515 | 7991 ft | 284 kts | 134° |
| 2026-05-07 21:53 | 25.40179 | 55.27117 | 7997 ft | 282 kts | 133° |
| 2026-05-07 21:53 | 25.38862 | 55.28721 | 7991 ft | 280 kts | 133° |
| 2026-05-07 21:53 | 25.37557 | 55.30318 | 7993 ft | 280 kts | 133° |
| 2026-05-07 21:53 | 25.36255 | 55.31916 | 8006 ft | 280 kts | 133° |
| 2026-05-07 21:54 | 25.34808 | 55.33306 | 7926 ft | 276 kts | 149° |
| 2026-05-07 21:54 | 25.33124 | 55.34343 | 7671 ft | 278 kts | 154° |
| 2026-05-07 21:54 | 25.31412 | 55.35286 | 7349 ft | 279 kts | 155° |
| 2026-05-07 21:54 | 25.29672 | 55.36245 | 7044 ft | 278 kts | 154° |
| 2026-05-07 21:55 | 25.27952 | 55.37210 | 6759 ft | 277 kts | 154° |
| 2026-05-07 21:55 | 25.26242 | 55.38186 | 6474 ft | 276 kts | 154° |
| 2026-05-07 21:55 | 25.24544 | 55.39169 | 6181 ft | 276 kts | 154° |
| 2026-05-07 21:55 | 25.22848 | 55.40157 | 6011 ft | 274 kts | 154° |
| 2026-05-07 21:56 | 25.21177 | 55.41134 | 6015 ft | 277 kts | 154° |
| 2026-05-07 21:56 | 25.19474 | 55.42130 | 6013 ft | 277 kts | 154° |
| 2026-05-07 21:56 | 25.17774 | 55.43124 | 6011 ft | 276 kts | 153° |
| 2026-05-07 21:56 | 25.16078 | 55.44116 | 6007 ft | 275 kts | 154° |
| 2026-05-07 21:57 | 25.14390 | 55.45103 | 6005 ft | 272 kts | 153° |
| 2026-05-07 21:57 | 25.12759 | 55.46059 | 5997 ft | 259 kts | 154° |
| 2026-05-07 21:57 | 25.11266 | 55.47051 | 5984 ft | 244 kts | 137° |
| 2026-05-07 21:57 | 25.10283 | 55.48554 | 6040 ft | 243 kts | 121° |
| 2026-05-07 21:58 | 25.09407 | 55.50163 | 6012 ft | 243 kts | 122° |
| 2026-05-07 21:58 | 25.08539 | 55.51726 | 6006 ft | 236 kts | 122° |
| 2026-05-07 21:58 | 25.07698 | 55.53236 | 6013 ft | 234 kts | 123° |
| 2026-05-07 21:58 | 25.06839 | 55.54771 | 6025 ft | 236 kts | 123° |
| 2026-05-07 21:59 | 25.05977 | 55.56315 | 6035 ft | 237 kts | 123° |
| 2026-05-07 21:59 | 25.05109 | 55.57867 | 6026 ft | 238 kts | 123° |
| 2026-05-07 21:59 | 25.04240 | 55.59415 | 5858 ft | 237 kts | 123° |
| 2026-05-07 21:59 | 25.03385 | 55.60958 | 5598 ft | 235 kts | 123° |
| 2026-05-07 22:00 | 25.02537 | 55.62491 | 5318 ft | 234 kts | 123° |
| 2026-05-07 22:00 | 25.01915 | 55.64121 | 4920 ft | 235 kts | 96° |
| 2026-05-07 22:00 | 25.02142 | 55.65887 | 4536 ft | 236 kts | 63° |
| 2026-05-07 22:00 | 25.03182 | 55.67247 | 4130 ft | 233 kts | 28° |
| 2026-05-07 22:01 | 25.04633 | 55.67790 | 3924 ft | 218 kts | 4° |
| 2026-05-07 22:01 | 25.06122 | 55.67953 | 3784 ft | 215 kts | 0° |
| 2026-05-07 22:01 | 25.07578 | 55.67736 | 3697 ft | 211 kts | 328° |
| 2026-05-07 22:01 | 25.08665 | 55.66689 | 3648 ft | 210 kts | 302° |
| 2026-05-07 22:02 | 25.09414 | 55.65305 | 3546 ft | 211 kts | 297° |
| 2026-05-07 22:02 | 25.10127 | 55.63898 | 3396 ft | 209 kts | 298° |
| 2026-05-07 22:02 | 25.10860 | 55.62519 | 3277 ft | 207 kts | 299° |
| 2026-05-07 22:02 | 25.11596 | 55.61172 | 3141 ft | 203 kts | 300° |
| 2026-05-07 22:03 | 25.12319 | 55.59857 | 3077 ft | 199 kts | 300° |
| 2026-05-07 22:03 | 25.13031 | 55.58567 | 3091 ft | 200 kts | 300° |
| 2026-05-07 22:03 | 25.13766 | 55.57244 | 3069 ft | 205 kts | 300° |
| 2026-05-07 22:03 | 25.14510 | 55.55905 | 3015 ft | 202 kts | 300° |
| 2026-05-07 22:04 | 25.15225 | 55.54612 | 2978 ft | 194 kts | 300° |
| 2026-05-07 22:04 | 25.15929 | 55.53341 | 2718 ft | 191 kts | 300° |
| 2026-05-07 22:04 | 25.16606 | 55.52120 | 2485 ft | 179 kts | 300° |
| 2026-05-07 22:04 | 25.17225 | 55.51000 | 2280 ft | 165 kts | 300° |
| 2026-05-07 22:05 | 25.17805 | 55.49955 | 2077 ft | 158 kts | 301° |
| 2026-05-07 22:05 | 25.18375 | 55.48923 | 1876 ft | 154 kts | 301° |
| 2026-05-07 22:05 | 25.18911 | 55.47956 | 1675 ft | 141 kts | 301° |
| 2026-05-07 22:05 | 25.19404 | 55.47066 | 1541 ft | 136 kts | 301° |
| 2026-05-07 22:06 | 25.19908 | 55.46155 | 1346 ft | 141 kts | 301° |
| 2026-05-07 22:06 | 25.20420 | 55.45233 | 1172 ft | 142 kts | 301° |
| 2026-05-07 22:06 | 25.20935 | 55.44302 | 988 ft | 143 kts | 301° |
| 2026-05-07 22:06 | 25.21458 | 55.43354 | 806 ft | 147 kts | 300° |
| 2026-05-07 22:07 | 25.21990 | 55.42384 | 652 ft | 149 kts | 300° |
| 2026-05-07 22:07 | 25.22527 | 55.41395 | 455 ft | 151 kts | 300° |
| 2026-05-07 22:07 | 25.23076 | 55.40404 | 251 ft | 152 kts | 300° |
| 2026-05-07 22:07 | 25.23630 | 55.39412 | 82 ft | 152 kts | 299° |
| 2026-05-07 22:08 | 25.24169 | 55.38434 | 31 ft | 139 kts | 302° |
| 2026-05-07 22:08 | 25.24575 | 55.37706 | 27 ft | 87 kts | 301° |
| 2026-05-07 22:08 | 25.24791 | 55.37316 | 29 ft | 35 kts | 301° |
| 2026-05-07 22:08 | 25.24958 | 55.37016 | 30 ft | 48 kts | 301° |
| 2026-05-07 22:09 | 25.25019 | 55.36744 | 27 ft | 28 kts | 272° |
| 2026-05-07 22:09 | 25.25023 | 55.36586 | 26 ft | 22 kts | 271° |
| 2026-05-07 22:09 | 25.25060 | 55.36377 | 26 ft | 35 kts | 292° |
| 2026-05-07 22:09 | 25.25171 | 55.36171 | 26 ft | 29 kts | 302° |
| 2026-05-07 22:10 | 25.25192 | 55.36020 | 31 ft | 17 kts | 250° |
| 2026-05-07 22:10 | 25.25115 | 55.35941 | 29 ft | 9 kts | 212° |
| 2026-05-07 22:10 | 25.25094 | 55.35927 | 26 ft | 0 kts | 212° |